Hope, Indiana
Current Conditions -  °F | °C
As of 12:45 PM on Friday 31 Oct 2014 (Local Time) from KBAK Reporting Station
Overcast Overcast  
Wind Chill: 31°   Ceiling: 1300
Heat Index: 39°   Visibility: 10mi
Dew Point: 37°   Wind: 14mph
Humidity: 93%   Direction: 330°NNW
Pressure: 30.02"   Gusts: 21mph
Location:  39.3°N, 85.77°W
Report Text: KBAK 311645Z 33012G18KT 10SM BKN013 OVC024 04/03 A3002
Loading
Personal Weather Stations






























Interactive Weather Map
Tropical Storm Tracking
New forecast layout! Learn more

10-Day Weather Forecast

Advertisements
Track Severe Weather on mobile